Time;durP1;ratioP1;P1;durP2;ratioP2;P2;SDS_P1;SDS_P2;PMS_P1;PMS_P2;Temp;Humidity;BMP_temperature;BMP_pressure;BME280_temperature;BME280_humidity;BME280_pressure;Samples;Min_cycle;Max_cycle;Signal;HPM_P1;HPM_P2
2022/08/22 00:00:12;;;;;;;;;3.25;3.25;;;;;;;;5055854;28;48508;-64
2022/08/22 00:02:43;;;;;;;;;3.75;3.00;;;;;;;;5071832;28;45505;-62
2022/08/22 00:05:21;;;;;;;;;3.67;3.00;;;;;;;;5049092;28;45515;-63
2022/08/22 00:07:55;;;;;;;;;4.50;3.25;;;;;;;;5049294;28;45513;-62
2022/08/22 00:10:23;;;;;;;;;5.00;4.00;;;;;;;;5074042;28;46434;-62
2022/08/22 00:12:57;;;;;;;;;3.75;3.75;;;;;;;;5071585;27;45524;-62
2022/08/22 00:15:27;;;;;;;;;3.25;3.25;;;;;;;;5056460;28;45477;-63
2022/08/22 00:17:57;;;;;;;;;3.75;3.00;;;;;;;;5069821;27;45549;-62
2022/08/22 00:20:23;;;;;;;;;3.00;2.00;;;;;;;;5063822;28;48630;-62
2022/08/22 00:22:51;;;;;;;;;3.75;3.75;;;;;;;;5073746;27;45549;-63
2022/08/22 00:25:16;;;;;;;;;3.00;3.00;;;;;;;;5073826;27;45953;-65
2022/08/22 00:27:52;;;;;;;;;4.25;3.00;;;;;;;;5061865;27;45599;-62
2022/08/22 00:30:18;;;;;;;;;4.50;2.75;;;;;;;;5055851;28;48851;-63
2022/08/22 00:32:51;;;;;;;;;3.00;2.75;;;;;;;;5056213;28;45522;-65
2022/08/22 00:35:20;;;;;;;;;3.00;3.00;;;;;;;;5053283;28;45848;-64
2022/08/22 00:38:07;;;;;;;;;3.00;3.00;;;;;;;;5056030;28;45468;-63
2022/08/22 00:40:52;;;;;;;;;4.00;3.00;;;;;;;;5067406;27;45621;-62
2022/08/22 00:43:26;;;;;;;;;3.75;2.75;;;;;;;;5074165;28;45451;-61
2022/08/22 00:46:10;;;;;;;;;5.75;4.25;;;;;;;;5074764;28;45458;-62
2022/08/22 00:48:35;;;;;;;;;2.00;2.00;;;;;;;;5056147;28;45486;-63
2022/08/22 00:51:07;;;;;;;;;2.00;2.00;;;;;;;;5078643;27;46447;-63
2022/08/22 00:53:33;;;;;;;;;2.50;2.00;;;;;;;;5060473;28;45533;-62
2022/08/22 00:56:22;;;;;;;;;5.75;3.25;;;;;;;;5072721;28;45473;-62
2022/08/22 00:58:54;;;;;;;;;4.00;3.00;;;;;;;;5056429;28;45565;-63
2022/08/22 01:01:39;;;;;;;;;3.50;3.50;;;;;;;;5074027;28;46258;-62
2022/08/22 01:04:18;;;;;;;;;4.00;3.00;;;;;;;;5071722;28;45494;-63
2022/08/22 01:06:53;;;;;;;;;3.00;2.00;;;;;;;;5043685;28;45551;-61
2022/08/22 01:09:18;;;;;;;;;3.50;3.00;;;;;;;;5074289;28;45519;-63
2022/08/22 01:12:02;;;;;;;;;4.00;3.00;;;;;;;;5074069;28;45404;-63
2022/08/22 01:14:39;;;;;;;;;5.00;4.00;;;;;;;;5074290;28;45262;-62
2022/08/22 01:17:24;;;;;;;;;4.00;2.50;;;;;;;;5073038;27;45398;-63
2022/08/22 01:20:08;;;;;;;;;3.00;3.00;;;;;;;;5069730;28;45417;-63
2022/08/22 01:22:52;;;;;;;;;3.75;3.25;;;;;;;;5055108;28;45774;-61
2022/08/22 01:25:29;;;;;;;;;2.75;2.75;;;;;;;;5055488;28;46308;-62
2022/08/22 01:28:03;;;;;;;;;4.00;3.00;;;;;;;;5071753;27;45773;-63
2022/08/22 01:30:30;;;;;;;;;3.00;3.00;;;;;;;;5052402;28;45683;-62
2022/08/22 01:33:14;;;;;;;;;3.50;3.50;;;;;;;;5052822;28;47755;-63
2022/08/22 01:35:55;;;;;;;;;2.25;2.25;;;;;;;;5054169;28;45484;-62
2022/08/22 01:38:33;;;;;;;;;4.75;2.75;;;;;;;;5054351;28;45455;-61
2022/08/22 01:40:58;;;;;;;;;3.00;3.00;;;;;;;;5062173;27;45560;-61
2022/08/22 01:43:34;;;;;;;;;3.00;2.00;;;;;;;;5050359;28;45464;-62
2022/08/22 01:46:08;;;;;;;;;2.00;2.00;;;;;;;;5080244;27;46018;-62
2022/08/22 01:48:43;;;;;;;;;3.25;2.00;;;;;;;;5093776;27;45387;-63
2022/08/22 01:51:18;;;;;;;;;6.75;3.75;;;;;;;;5054416;28;45828;-61
2022/08/22 01:53:46;;;;;;;;;3.00;3.00;;;;;;;;5071957;27;46578;-61
2022/08/22 01:56:14;;;;;;;;;3.00;3.00;;;;;;;;5051240;28;46487;-63
2022/08/22 01:59:02;;;;;;;;;4.00;3.00;;;;;;;;5074152;28;45427;-61
2022/08/22 02:01:46;;;;;;;;;4.75;3.25;;;;;;;;5067053;27;45357;-61
2022/08/22 02:04:18;;;;;;;;;6.00;4.25;;;;;;;;5034853;28;46695;-63
2022/08/22 02:06:56;;;;;;;;;2.75;2.75;;;;;;;;5035429;28;45482;-62
2022/08/22 02:09:40;;;;;;;;;3.00;3.00;;;;;;;;5053754;28;45475;-63
2022/08/22 02:12:28;;;;;;;;;2.50;2.50;;;;;;;;5065240;27;45448;-61
2022/08/22 02:15:16;;;;;;;;;2.00;2.00;;;;;;;;5052540;28;45452;-62
2022/08/22 02:17:53;;;;;;;;;2.67;2.00;;;;;;;;5072792;27;46374;-62
2022/08/22 02:20:23;;;;;;;;;4.00;4.00;;;;;;;;5093067;27;45365;-63
2022/08/22 02:22:48;;;;;;;;;5.00;2.67;;;;;;;;5075652;27;45583;-63
2022/08/22 02:25:17;;;;;;;;;3.25;2.50;;;;;;;;5092825;27;47579;-62
2022/08/22 02:27:43;;;;;;;;;4.00;2.25;;;;;;;;5094032;27;45458;-62
2022/08/22 02:30:11;;;;;;;;;3.00;3.00;;;;;;;;5092679;27;45409;-62
2022/08/22 02:32:39;;;;;;;;;3.75;3.75;;;;;;;;5075685;27;45402;-62
2022/08/22 02:35:04;;;;;;;;;3.00;3.00;;;;;;;;5093640;27;46482;-62
2022/08/22 02:37:38;;;;;;;;;3.00;3.00;;;;;;;;5093981;27;45431;-63
2022/08/22 02:40:09;;;;;;;;;3.00;3.00;;;;;;;;5075821;27;45507;-62
2022/08/22 02:42:41;;;;;;;;;4.75;3.75;;;;;;;;5092538;27;45467;-62
2022/08/22 02:45:16;;;;;;;;;3.50;3.50;;;;;;;;5093826;27;46576;-62
2022/08/22 02:47:50;;;;;;;;;2.00;2.00;;;;;;;;5093942;27;46032;-62
2022/08/22 02:50:23;;;;;;;;;4.75;3.00;;;;;;;;5093700;27;45375;-62
2022/08/22 02:52:57;;;;;;;;;3.75;3.00;;;;;;;;5065615;27;45457;-63
2022/08/22 02:55:34;;;;;;;;;2.00;2.00;;;;;;;;5054513;28;45891;-63
2022/08/22 02:58:18;;;;;;;;;3.75;2.75;;;;;;;;5054620;28;46228;-62
2022/08/22 03:00:49;;;;;;;;;3.50;3.25;;;;;;;;5054471;28;45506;-62
2022/08/22 03:03:18;;;;;;;;;1.75;1.75;;;;;;;;5072719;28;45459;-63
2022/08/22 03:05:43;;;;;;;;;2.00;2.00;;;;;;;;5054865;28;47895;-61
2022/08/22 03:08:24;;;;;;;;;2.00;2.00;;;;;;;;5054993;28;45484;-61
2022/08/22 03:11:04;;;;;;;;;2.33;2.33;;;;;;;;5072380;27;45476;-61
2022/08/22 03:13:42;;;;;;;;;3.25;2.50;;;;;;;;5054416;28;45492;-62
2022/08/22 03:16:14;;;;;;;;;3.00;3.00;;;;;;;;5054226;28;48304;-61
2022/08/22 03:18:47;;;;;;;;;3.00;3.00;;;;;;;;5072531;28;45480;-62
2022/08/22 03:21:22;;;;;;;;;2.00;2.00;;;;;;;;5054560;28;45455;-62
2022/08/22 03:23:50;;;;;;;;;1.50;1.50;;;;;;;;5072475;28;45423;-62
2022/08/22 03:26:21;;;;;;;;;4.75;3.75;;;;;;;;5071702;28;48912;-61
2022/08/22 03:28:50;;;;;;;;;4.00;1.00;;;;;;;;5057367;28;45506;-62
2022/08/22 03:31:21;;;;;;;;;4.75;2.75;;;;;;;;5057784;28;45719;-62
2022/08/22 03:34:06;;;;;;;;;3.50;3.50;;;;;;;;5057464;28;45398;-63
2022/08/22 03:36:31;;;;;;;;;4.25;3.50;;;;;;;;5083299;27;46341;-62
2022/08/22 03:39:05;;;;;;;;;4.25;4.25;;;;;;;;5078013;27;45420;-61
2022/08/22 03:41:46;;;;;;;;;3.75;3.75;;;;;;;;5075807;28;45311;-62
2022/08/22 03:44:11;;;;;;;;;4.50;3.50;;;;;;;;5075682;28;45488;-62
2022/08/22 03:46:55;;;;;;;;;3.50;3.00;;;;;;;;5076326;28;46369;-61
2022/08/22 03:49:38;;;;;;;;;2.00;2.00;;;;;;;;5058179;28;45418;-62
2022/08/22 03:52:04;;;;;;;;;6.50;4.75;;;;;;;;5087783;27;45499;-63
2022/08/22 03:54:47;;;;;;;;;4.50;3.50;;;;;;;;5096577;27;45361;-62
2022/08/22 03:57:31;;;;;;;;;4.00;4.00;;;;;;;;5077995;27;47764;-62
2022/08/22 04:00:08;;;;;;;;;4.75;4.75;;;;;;;;5078051;27;46429;-62
2022/08/22 04:02:34;;;;;;;;;4.25;3.25;;;;;;;;5096497;27;45537;-62
2022/08/22 04:05:18;;;;;;;;;7.75;5.00;;;;;;;;5096528;27;45416;-62
2022/08/22 04:07:48;;;;;;;;;5.25;5.00;;;;;;;;5077840;27;47790;-61
2022/08/22 04:10:16;;;;;;;;;5.50;4.25;;;;;;;;5096416;27;45615;-61
2022/08/22 04:12:47;;;;;;;;;3.25;3.25;;;;;;;;5096341;27;45416;-62
2022/08/22 04:15:32;;;;;;;;;3.00;3.00;;;;;;;;5077943;27;45587;-62
2022/08/22 04:17:57;;;;;;;;;4.50;4.50;;;;;;;;5096038;27;46379;-62
2022/08/22 04:21:01;;;;;;;;;3.00;3.00;;;;;;;;5077607;27;46335;-61
2022/08/22 04:23:32;;;;;;;;;6.25;5.50;;;;;;;;4980267;28;46663;-63
2022/08/22 04:26:00;;;;;;;;;4.00;4.00;;;;;;;;4974407;28;45466;-62
2022/08/22 04:28:37;;;;;;;;;5.75;3.00;;;;;;;;4956470;28;46032;-63
2022/08/22 04:31:05;;;;;;;;;3.00;3.00;;;;;;;;4953588;28;45455;-62
2022/08/22 04:33:39;;;;;;;;;3.75;3.75;;;;;;;;4954190;28;45661;-61
2022/08/22 04:36:05;;;;;;;;;7.75;4.25;;;;;;;;4963136;28;45670;-61
2022/08/22 04:38:37;;;;;;;;;5.75;4.25;;;;;;;;4971539;28;47651;-62
2022/08/22 04:41:09;;;;;;;;;4.75;4.00;;;;;;;;4973057;28;45432;-61
2022/08/22 04:43:38;;;;;;;;;9.75;7.50;;;;;;;;4956692;28;45365;-62
2022/08/22 04:46:21;;;;;;;;;4.25;3.75;;;;;;;;4973357;28;45373;-62
2022/08/22 04:48:51;;;;;;;;;3.00;3.00;;;;;;;;4956578;28;48508;-62
2022/08/22 04:51:40;;;;;;;;;4.00;3.75;;;;;;;;4963459;28;45670;-62
2022/08/22 04:54:05;;;;;;;;;7.50;5.50;;;;;;;;4903418;28;45522;-63
2022/08/22 04:56:49;;;;;;;;;9.00;5.00;;;;;;;;4934388;28;45623;-62
2022/08/22 04:59:15;;;;;;;;;4.00;4.00;;;;;;;;4933882;28;48607;-62
2022/08/22 05:01:46;;;;;;;;;9.25;7.25;;;;;;;;4917828;28;45888;-63
2022/08/22 05:04:38;;;;;;;;;2.75;2.75;;;;;;;;4934060;28;45419;-62
2022/08/22 05:07:07;;;;;;;;;4.00;4.00;;;;;;;;4930691;28;45595;-62
2022/08/22 05:09:34;;;;;;;;;7.50;2.75;;;;;;;;4933254;28;48751;-63
2022/08/22 05:12:04;;;;;;;;;3.75;3.75;;;;;;;;4933244;28;45369;-61
2022/08/22 05:14:35;;;;;;;;;4.00;3.00;;;;;;;;4917929;28;45421;-62
2022/08/22 05:17:03;;;;;;;;;3.00;3.00;;;;;;;;4933590;28;45384;-62
2022/08/22 05:19:33;;;;;;;;;3.75;3.75;;;;;;;;4933058;28;45747;-63
2022/08/22 05:21:59;;;;;;;;;8.00;5.25;;;;;;;;4933517;28;45317;-62
2022/08/22 05:24:31;;;;;;;;;5.75;4.00;;;;;;;;4917535;28;45478;-62
2022/08/22 05:27:00;;;;;;;;;3.00;3.00;;;;;;;;4937475;28;45537;-62
2022/08/22 05:29:28;;;;;;;;;3.25;3.25;;;;;;;;4938210;28;47558;-62
2022/08/22 05:32:00;;;;;;;;;2.25;2.25;;;;;;;;5001500;28;46451;-63
2022/08/22 05:34:29;;;;;;;;;5.25;4.00;;;;;;;;5016039;28;45466;-62
2022/08/22 05:36:55;;;;;;;;;4.00;4.00;;;;;;;;5016184;28;45471;-63
2022/08/22 05:39:24;;;;;;;;;5.00;4.75;;;;;;;;5033809;28;45603;-62
2022/08/22 05:41:51;;;;;;;;;5.50;5.00;;;;;;;;5016036;28;45703;-62
2022/08/22 05:44:29;;;;;;;;;4.00;3.00;;;;;;;;5019720;28;45459;-62
2022/08/22 05:46:58;;;;;;;;;4.00;3.50;;;;;;;;5032373;28;45449;-62
2022/08/22 05:49:27;;;;;;;;;6.00;6.00;;;;;;;;5015780;28;48469;-61
2022/08/22 05:51:52;;;;;;;;;3.50;3.50;;;;;;;;5039833;28;45442;-64
2022/08/22 05:54:22;;;;;;;;;4.50;4.50;;;;;;;;5056002;28;45392;-61
2022/08/22 05:56:52;;;;;;;;;7.50;5.25;;;;;;;;5056131;28;45319;-62
2022/08/22 05:59:28;;;;;;;;;5.00;4.00;;;;;;;;5055387;28;46696;-62
2022/08/22 06:01:53;;;;;;;;;7.25;5.25;;;;;;;;5055771;28;46436;-61
2022/08/22 06:04:30;;;;;;;;;5.25;4.25;;;;;;;;5074321;28;45627;-62
2022/08/22 06:07:01;;;;;;;;;3.00;3.00;;;;;;;;5074089;27;45701;-62
2022/08/22 06:09:45;;;;;;;;;6.00;6.00;;;;;;;;5073890;27;45874;-63
2022/08/22 06:12:24;;;;;;;;;4.50;4.00;;;;;;;;5055481;28;45655;-61
2022/08/22 06:14:58;;;;;;;;;5.00;5.00;;;;;;;;5055831;28;45428;-64
2022/08/22 06:17:26;;;;;;;;;6.75;5.00;;;;;;;;5074050;28;45371;-63
2022/08/22 06:19:52;;;;;;;;;4.00;4.00;;;;;;;;5072109;28;48012;-62
2022/08/22 06:22:20;;;;;;;;;3.00;2.50;;;;;;;;5073771;28;46045;-62
2022/08/22 06:24:46;;;;;;;;;2.75;2.75;;;;;;;;5073935;28;45499;-64
2022/08/22 06:27:13;;;;;;;;;5.00;4.50;;;;;;;;5080739;27;45411;-64
2022/08/22 06:29:41;;;;;;;;;5.25;5.25;;;;;;;;5075716;27;47818;-63
2022/08/22 06:32:19;;;;;;;;;5.50;5.00;;;;;;;;5094271;27;45398;-63
2022/08/22 06:34:45;;;;;;;;;5.00;5.00;;;;;;;;5094387;27;45573;-65
2022/08/22 06:37:22;;;;;;;;;4.50;4.25;;;;;;;;5094590;27;45568;-64
2022/08/22 06:39:51;;;;;;;;;5.50;5.50;;;;;;;;5075857;27;47792;-63
2022/08/22 06:42:29;;;;;;;;;3.75;3.75;;;;;;;;5075616;27;46313;-64
2022/08/22 06:45:00;;;;;;;;;5.75;5.75;;;;;;;;5058896;27;45478;-64
2022/08/22 06:47:35;;;;;;;;;6.75;3.25;;;;;;;;5091005;27;45330;-65
2022/08/22 06:50:28;;;;;;;;;5.50;4.25;;;;;;;;5075208;27;47677;-64
2022/08/22 06:52:58;;;;;;;;;5.75;4.00;;;;;;;;5051617;28;46244;-64
2022/08/22 06:55:25;;;;;;;;;6.00;5.00;;;;;;;;5055175;28;45579;-64
2022/08/22 06:58:02;;;;;;;;;4.00;4.00;;;;;;;;5073599;28;45423;-64
2022/08/22 07:00:30;;;;;;;;;6.00;5.25;;;;;;;;5054976;28;45697;-63
2022/08/22 07:03:07;;;;;;;;;6.00;4.25;;;;;;;;5058341;28;46058;-64
2022/08/22 07:05:38;;;;;;;;;5.75;4.75;;;;;;;;5058608;28;45508;-64
2022/08/22 07:08:13;;;;;;;;;5.50;4.00;;;;;;;;5057944;28;45562;-63
2022/08/22 07:10:43;;;;;;;;;3.75;3.75;;;;;;;;5076743;28;45669;-64
2022/08/22 07:13:13;;;;;;;;;4.50;4.50;;;;;;;;5057278;28;45517;-64
2022/08/22 07:15:41;;;;;;;;;4.25;4.00;;;;;;;;5058400;28;45408;-63
2022/08/22 07:18:26;;;;;;;;;4.25;4.25;;;;;;;;5076190;28;45483;-63
2022/08/22 07:20:53;;;;;;;;;3.00;3.00;;;;;;;;5075176;28;45394;-64
2022/08/22 07:23:31;;;;;;;;;5.50;4.50;;;;;;;;5057582;28;46310;-63
2022/08/22 07:26:08;;;;;;;;;6.25;4.75;;;;;;;;5058137;28;45479;-64
2022/08/22 07:28:34;;;;;;;;;3.75;3.75;;;;;;;;5057614;28;45429;-64
2022/08/22 07:31:02;;;;;;;;;3.50;3.50;;;;;;;;5042894;27;48481;-64
2022/08/22 07:33:30;;;;;;;;;4.00;3.00;;;;;;;;5055977;27;45379;-63
2022/08/22 07:36:00;;;;;;;;;4.00;3.50;;;;;;;;5056084;27;45902;-64
2022/08/22 07:38:25;;;;;;;;;5.00;3.75;;;;;;;;5056192;28;45344;-64
2022/08/22 07:40:50;;;;;;;;;2.00;2.00;;;;;;;;5075072;27;45451;-64
2022/08/22 07:43:24;;;;;;;;;3.00;3.00;;;;;;;;5057330;28;46578;-64
2022/08/22 07:45:55;;;;;;;;;6.75;3.75;;;;;;;;5076153;27;45420;-62
2022/08/22 07:48:29;;;;;;;;;1.75;1.75;;;;;;;;5057090;28;45505;-62
2022/08/22 07:50:57;;;;;;;;;5.00;4.00;;;;;;;;5077795;27;46527;-62
2022/08/22 07:53:33;;;;;;;;;4.50;4.00;;;;;;;;5069207;28;46625;-62
2022/08/22 07:56:00;;;;;;;;;3.50;3.50;;;;;;;;5057642;28;45432;-62
2022/08/22 07:58:27;;;;;;;;;5.50;4.25;;;;;;;;5075966;28;45501;-63
2022/08/22 08:00:53;;;;;;;;;4.00;4.00;;;;;;;;5057434;28;48562;-63
2022/08/22 08:03:20;;;;;;;;;5.75;5.00;;;;;;;;5057427;28;45481;-63
2022/08/22 08:05:46;;;;;;;;;4.75;4.00;;;;;;;;5057670;28;45455;-63
2022/08/22 08:08:16;;;;;;;;;8.00;5.00;;;;;;;;5076030;28;45473;-63
2022/08/22 08:10:41;;;;;;;;;6.75;5.00;;;;;;;;5057442;28;48721;-63
2022/08/22 08:13:10;;;;;;;;;5.75;5.25;;;;;;;;5074470;28;45463;-63
2022/08/22 08:15:38;;;;;;;;;4.25;4.25;;;;;;;;5057169;28;45704;-64
2022/08/22 08:18:09;;;;;;;;;6.50;4.00;;;;;;;;5075159;27;45459;-64
2022/08/22 08:20:35;;;;;;;;;5.00;4.00;;;;;;;;5057127;28;48647;-63
2022/08/22 08:23:01;;;;;;;;;4.50;4.00;;;;;;;;5057244;28;45980;-64
2022/08/22 08:25:27;;;;;;;;;4.25;4.00;;;;;;;;5074054;28;45535;-63
2022/08/22 08:30:41;;;;;;;;;3.50;3.50;;;;;;;;5075291;27;45358;-63
2022/08/22 08:33:10;;;;;;;;;3.50;3.50;;;;;;;;5056986;28;45410;-64
2022/08/22 08:35:38;;;;;;;;;3.50;3.00;;;;;;;;5057129;28;45570;-64
2022/08/22 08:38:16;;;;;;;;;3.25;3.25;;;;;;;;5055964;28;45470;-64
2022/08/22 08:40:41;;;;;;;;;5.00;2.50;;;;;;;;5056450;28;47961;-64
2022/08/22 08:43:26;;;;;;;;;5.00;5.00;;;;;;;;5056897;28;45392;-64
2022/08/22 08:46:01;;;;;;;;;2.50;2.50;;;;;;;;5057099;28;45491;-63
2022/08/22 08:48:44;;;;;;;;;4.75;2.50;;;;;;;;5075238;28;45434;-62
2022/08/22 08:51:28;;;;;;;;;3.00;3.00;;;;;;;;5055803;28;46553;-63
2022/08/22 08:54:00;;;;;;;;;6.00;5.00;;;;;;;;5075892;27;46116;-64
2022/08/22 08:56:34;;;;;;;;;6.00;4.00;;;;;;;;5095255;27;45455;-63
2022/08/22 08:59:02;;;;;;;;;5.00;3.00;;;;;;;;5077279;27;45544;-63
2022/08/22 09:01:34;;;;;;;;;6.50;5.50;;;;;;;;5076729;27;47885;-64
2022/08/22 09:04:35;;;;;;;;;4.50;4.00;;;;;;;;5076610;27;45422;-63
2022/08/22 09:07:00;;;;;;;;;7.50;4.00;;;;;;;;5012499;28;45668;-62
2022/08/22 09:09:25;;;;;;;;;5.00;3.75;;;;;;;;5012120;28;45376;-64
2022/08/22 09:11:53;;;;;;;;;4.50;3.50;;;;;;;;5012021;28;46636;-64
2022/08/22 09:14:36;;;;;;;;;3.50;3.50;;;;;;;;5012128;28;45436;-63
2022/08/22 09:17:20;;;;;;;;;5.75;4.25;;;;;;;;5011844;28;45421;-63
2022/08/22 09:20:04;;;;;;;;;3.25;3.25;;;;;;;;5011999;28;45526;-64
2022/08/22 09:22:30;;;;;;;;;3.50;3.50;;;;;;;;5011724;28;46489;-63
2022/08/22 09:25:01;;;;;;;;;2.00;2.00;;;;;;;;4994832;28;45485;-63
2022/08/22 09:27:33;;;;;;;;;2.00;1.50;;;;;;;;5010851;28;45399;-63
2022/08/22 09:30:05;;;;;;;;;3.00;2.50;;;;;;;;5011561;28;45398;-63
2022/08/22 09:33:02;;;;;;;;;2.25;2.25;;;;;;;;5011417;28;46782;-62
2022/08/22 09:35:33;;;;;;;;;4.25;2.25;;;;;;;;4933291;28;46387;-63
2022/08/22 09:38:08;;;;;;;;;2.00;2.00;;;;;;;;4933459;28;46025;-62
2022/08/22 09:40:41;;;;;;;;;1.75;1.75;;;;;;;;4954499;28;45509;-63
2022/08/22 09:43:12;;;;;;;;;1.50;1.50;;;;;;;;5010184;28;46490;-63
2022/08/22 09:45:46;;;;;;;;;1.00;1.00;;;;;;;;5010378;28;45596;-62
2022/08/22 09:48:22;;;;;;;;;2.00;2.00;;;;;;;;5011633;28;45612;-60
2022/08/22 09:50:58;;;;;;;;;2.00;2.00;;;;;;;;5008890;28;45518;-61
2022/08/22 09:53:54;;;;;;;;;1.00;1.00;;;;;;;;4989479;28;47399;-61
2022/08/22 09:56:22;;;;;;;;;1.00;1.00;;;;;;;;4985610;28;45558;-61
2022/08/22 09:58:56;;;;;;;;;1.00;0.50;;;;;;;;4975167;28;45417;-61
2022/08/22 10:01:26;;;;;;;;;1.50;1.00;;;;;;;;4974832;28;45566;-61
2022/08/22 10:04:21;;;;;;;;;1.50;1.50;;;;;;;;4974673;28;49021;-62
2022/08/22 10:06:46;;;;;;;;;1.50;1.50;;;;;;;;4962315;28;46358;-62
2022/08/22 10:09:26;;;;;;;;;1.00;1.00;;;;;;;;4991730;28;45520;-62
2022/08/22 10:11:51;;;;;;;;;1.50;1.50;;;;;;;;5024483;28;45664;-62
2022/08/22 10:14:24;;;;;;;;;0.75;0.75;;;;;;;;5035477;28;48212;-61
2022/08/22 10:17:01;;;;;;;;;0.75;0.75;;;;;;;;5049351;28;45826;-60
2022/08/22 10:19:45;;;;;;;;;1.00;0.00;;;;;;;;5055431;28;45765;-61
2022/08/22 10:22:29;;;;;;;;;0.00;0.00;;;;;;;;5073675;28;45436;-61
2022/08/22 10:25:00;;;;;;;;;1.00;1.00;;;;;;;;5073687;28;45738;-61
2022/08/22 10:27:34;;;;;;;;;1.25;1.00;;;;;;;;5073241;27;45367;-62
2022/08/22 10:30:06;;;;;;;;;1.00;1.00;;;;;;;;5073909;27;45490;-62
2022/08/22 10:32:38;;;;;;;;;3.00;1.75;;;;;;;;5073968;28;45462;-62
2022/08/22 10:35:09;;;;;;;;;1.75;1.75;;;;;;;;5054802;28;47791;-60
2022/08/22 10:37:44;;;;;;;;;0.25;0.25;;;;;;;;5058006;28;45440;-60
2022/08/22 10:40:13;;;;;;;;;1.00;0.50;;;;;;;;5058936;27;45409;-62
2022/08/22 10:42:45;;;;;;;;;1.25;0.75;;;;;;;;5058883;28;45507;-61
2022/08/22 10:45:26;;;;;;;;;1.00;1.00;;;;;;;;5057663;28;47405;-62
2022/08/22 10:47:57;;;;;;;;;1.00;1.00;;;;;;;;5058991;28;46031;-61
2022/08/22 10:50:25;;;;;;;;;0.50;0.50;;;;;;;;5076400;28;45728;-61
2022/08/22 10:53:28;;;;;;;;;2.50;1.50;;;;;;;;5057848;28;45418;-61
2022/08/22 10:55:40;;;;;;;;;1.00;1.00;;;;;;;;5076301;27;45462;-60
2022/08/22 10:58:15;;;;;;;;;1.00;1.00;;;;;;;;5058479;28;46189;-64
2022/08/22 11:00:41;;;;;;;;;1.50;1.50;;;;;;;;5058103;28;45393;-62
2022/08/22 11:03:12;;;;;;;;;1.50;1.50;;;;;;;;5056638;28;45868;-65
2022/08/22 11:05:42;;;;;;;;;0.50;0.50;;;;;;;;5040605;28;48920;-61
2022/08/22 11:08:27;;;;;;;;;4.00;0.75;;;;;;;;5061568;28;45393;-61
2022/08/22 11:10:58;;;;;;;;;1.25;1.25;;;;;;;;5045236;28;45454;-62
2022/08/22 11:13:46;;;;;;;;;1.00;1.00;;;;;;;;5076133;28;45410;-61
2022/08/22 11:16:15;;;;;;;;;1.00;1.00;;;;;;;;5060600;28;46464;-60
2022/08/22 11:18:53;;;;;;;;;1.75;1.75;;;;;;;;5057507;28;45415;-60
2022/08/22 11:21:18;;;;;;;;;1.00;1.00;;;;;;;;5064019;28;45555;-60
2022/08/22 11:23:56;;;;;;;;;0.75;0.75;;;;;;;;5055314;28;45632;-62
2022/08/22 11:26:22;;;;;;;;;4.00;3.00;;;;;;;;5056423;28;46906;-59
2022/08/22 11:28:47;;;;;;;;;2.00;2.00;;;;;;;;5056456;27;45486;-59
2022/08/22 11:31:15;;;;;;;;;1.00;1.00;;;;;;;;5072127;27;45732;-66
2022/08/22 11:33:48;;;;;;;;;1.25;1.25;;;;;;;;5064476;27;45937;-62
2022/08/22 11:36:16;;;;;;;;;1.25;1.25;;;;;;;;5078883;27;45628;-63
2022/08/22 11:38:41;;;;;;;;;0.25;0.25;;;;;;;;5061679;28;46329;-64
2022/08/22 11:41:07;;;;;;;;;1.00;1.00;;;;;;;;5061275;28;46064;-65
2022/08/22 11:43:38;;;;;;;;;1.00;1.00;;;;;;;;5053168;28;45897;-64
2022/08/22 11:46:22;;;;;;;;;1.00;1.00;;;;;;;;5079836;27;46504;-65
2022/08/22 11:48:56;;;;;;;;;1.25;1.25;;;;;;;;5060764;27;45715;-64
2022/08/22 11:51:22;;;;;;;;;1.00;1.00;;;;;;;;5079832;27;45728;-64
2022/08/22 11:54:06;;;;;;;;;1.00;1.00;;;;;;;;5085104;27;45501;-65
2022/08/22 11:56:33;;;;;;;;;2.00;2.00;;;;;;;;5055228;28;47206;-65
2022/08/22 11:59:06;;;;;;;;;1.00;1.00;;;;;;;;5072300;27;45453;-66
2022/08/22 12:01:37;;;;;;;;;1.75;1.25;;;;;;;;5068770;27;45749;-62
2022/08/22 12:04:27;;;;;;;;;2.25;1.00;;;;;;;;5063416;27;45663;-61
2022/08/22 12:07:11;;;;;;;;;0.25;0.00;;;;;;;;5066417;27;47749;-62
2022/08/22 12:09:42;;;;;;;;;1.00;1.00;;;;;;;;5072697;27;45362;-62
2022/08/22 12:12:26;;;;;;;;;2.00;1.00;;;;;;;;5055123;28;45450;-62
2022/08/22 12:15:14;;;;;;;;;2.00;1.00;;;;;;;;5068902;27;45732;-63
2022/08/22 12:18:00;;;;;;;;;1.50;1.50;;;;;;;;5056119;28;46416;-60
2022/08/22 12:20:33;;;;;;;;;1.00;1.00;;;;;;;;5054772;28;46046;-62
2022/08/22 12:23:01;;;;;;;;;0.50;0.00;;;;;;;;5070467;27;45620;-61
2022/08/22 12:25:45;;;;;;;;;1.00;1.00;;;;;;;;5064421;27;45633;-61
2022/08/22 12:28:17;;;;;;;;;1.00;1.00;;;;;;;;5061353;27;48529;-62
2022/08/22 12:30:45;;;;;;;;;0.00;0.00;;;;;;;;5039037;28;46404;-60
2022/08/22 12:33:25;;;;;;;;;1.50;1.50;;;;;;;;5056005;28;45465;-61
2022/08/22 12:35:50;;;;;;;;;2.00;1.00;;;;;;;;5075347;28;45572;-61
2022/08/22 12:38:37;;;;;;;;;3.50;1.00;;;;;;;;5077689;27;46628;-60
2022/08/22 12:41:14;;;;;;;;;2.00;2.00;;;;;;;;5036328;28;45395;-60
2022/08/22 12:43:46;;;;;;;;;1.25;1.25;;;;;;;;5065770;28;45714;-62
2022/08/22 12:46:27;;;;;;;;;1.00;1.00;;;;;;;;5073274;28;45439;-61
2022/08/22 12:48:53;;;;;;;;;4.25;2.25;;;;;;;;5064615;27;45417;-61
2022/08/22 12:51:26;;;;;;;;;0.00;0.00;;;;;;;;5080212;27;45897;-62
2022/08/22 12:53:51;;;;;;;;;0.75;0.75;;;;;;;;5080802;27;45709;-60
2022/08/22 12:56:30;;;;;;;;;1.00;1.00;;;;;;;;5073606;28;45488;-62
2022/08/22 12:59:14;;;;;;;;;0.75;0.75;;;;;;;;5072589;27;45801;-62
2022/08/22 13:01:41;;;;;;;;;0.00;0.00;;;;;;;;5058040;27;45497;-64
2022/08/22 13:04:11;;;;;;;;;1.50;0.50;;;;;;;;5074674;27;45433;-62
2022/08/22 13:06:43;;;;;;;;;0.50;0.50;;;;;;;;5071580;28;45468;-62
2022/08/22 13:09:14;;;;;;;;;1.75;1.00;;;;;;;;5056174;28;49154;-62
2022/08/22 13:11:40;;;;;;;;;0.00;0.00;;;;;;;;5073994;27;45504;-61
2022/08/22 13:14:07;;;;;;;;;1.00;1.00;;;;;;;;5074384;28;45269;-63
2022/08/22 13:16:37;;;;;;;;;0.75;0.50;;;;;;;;5071979;28;45536;-62
2022/08/22 13:19:06;;;;;;;;;1.00;1.00;;;;;;;;5073754;28;46335;-62
2022/08/22 13:21:33;;;;;;;;;1.00;1.00;;;;;;;;5061952;27;45572;-63
2022/08/22 13:24:04;;;;;;;;;0.50;0.50;;;;;;;;5078701;27;45402;-63
2022/08/22 13:26:30;;;;;;;;;0.25;0.25;;;;;;;;5069617;27;45525;-62
2022/08/22 13:28:55;;;;;;;;;1.00;1.00;;;;;;;;5055714;28;47175;-62
2022/08/22 13:31:26;;;;;;;;;0.00;0.00;;;;;;;;5058199;28;46151;-62
2022/08/22 13:33:56;;;;;;;;;0.00;0.00;;;;;;;;5074338;27;45493;-61
2022/08/22 13:36:22;;;;;;;;;0.00;0.00;;;;;;;;5051858;28;45647;-62
2022/08/22 13:38:52;;;;;;;;;1.00;1.00;;;;;;;;5068710;28;48596;-61
2022/08/22 13:41:26;;;;;;;;;2.00;0.00;;;;;;;;5070967;28;45559;-61
2022/08/22 13:43:56;;;;;;;;;1.50;1.00;;;;;;;;5075829;27;45983;-61
2022/08/22 13:46:24;;;;;;;;;0.25;0.25;;;;;;;;5055622;28;45531;-61
2022/08/22 13:48:52;;;;;;;;;0.50;0.50;;;;;;;;5075129;27;45904;-62
2022/08/22 13:51:27;;;;;;;;;0.50;0.00;;;;;;;;5091094;27;45368;-61
2022/08/22 13:54:00;;;;;;;;;0.75;0.75;;;;;;;;5080887;27;45518;-61
2022/08/22 13:56:32;;;;;;;;;0.00;0.00;;;;;;;;5056812;28;45450;-62
2022/08/22 13:58:59;;;;;;;;;3.00;1.00;;;;;;;;5054013;28;46877;-61
2022/08/22 14:01:24;;;;;;;;;1.00;0.25;;;;;;;;5050276;28;45697;-61
2022/08/22 14:04:04;;;;;;;;;0.00;0.00;;;;;;;;5054930;28;45703;-61
2022/08/22 14:06:48;;;;;;;;;1.50;0.00;;;;;;;;5054172;28;45512;-61
2022/08/22 14:09:16;;;;;;;;;1.00;0.00;;;;;;;;5054751;27;48333;-61
2022/08/22 14:11:44;;;;;;;;;2.25;0.00;;;;;;;;5070762;28;45484;-61
2022/08/22 14:14:10;;;;;;;;;0.00;0.00;;;;;;;;5054408;28;45964;-61
2022/08/22 14:16:39;;;;;;;;;0.50;0.50;;;;;;;;5072675;27;45938;-60
2022/08/22 14:19:10;;;;;;;;;0.00;0.00;;;;;;;;5063525;28;46186;-61
2022/08/22 14:21:47;;;;;;;;;0.00;0.00;;;;;;;;5049626;28;46013;-61
2022/08/22 14:24:18;;;;;;;;;0.00;0.00;;;;;;;;5047544;28;45315;-60
2022/08/22 14:26:52;;;;;;;;;1.25;0.00;;;;;;;;5073335;28;45383;-62
2022/08/22 14:29:19;;;;;;;;;0.75;0.75;;;;;;;;5073388;28;46755;-62
2022/08/22 14:31:58;;;;;;;;;0.00;0.00;;;;;;;;5072717;28;45604;-61
2022/08/22 14:34:24;;;;;;;;;2.00;0.00;;;;;;;;5053810;28;45485;-61
2022/08/22 14:36:59;;;;;;;;;0.00;0.00;;;;;;;;5052469;28;45580;-61
2022/08/22 14:39:24;;;;;;;;;0.00;0.00;;;;;;;;5057195;28;46843;-61
2022/08/22 14:41:55;;;;;;;;;0.00;0.00;;;;;;;;5052079;28;45529;-61
2022/08/22 14:44:24;;;;;;;;;0.00;0.00;;;;;;;;5064069;27;45650;-61
2022/08/22 14:46:55;;;;;;;;;0.50;0.00;;;;;;;;5077248;27;45484;-60
2022/08/22 14:49:25;;;;;;;;;0.25;0.25;;;;;;;;5048736;28;47817;-60
2022/08/22 14:52:10;;;;;;;;;0.75;0.75;;;;;;;;5054689;28;45529;-60
2022/08/22 14:54:37;;;;;;;;;0.00;0.00;;;;;;;;5052711;28;45534;-61
2022/08/22 14:57:06;;;;;;;;;0.00;0.00;;;;;;;;5063610;27;45499;-62
2022/08/22 14:59:51;;;;;;;;;1.00;0.00;;;;;;;;5054490;28;46698;-62
2022/08/22 15:02:23;;;;;;;;;0.00;0.00;;;;;;;;5071902;28;45515;-62
2022/08/22 15:04:50;;;;;;;;;0.00;0.00;;;;;;;;5052088;28;45529;-62
2022/08/22 15:07:27;;;;;;;;;0.00;0.00;;;;;;;;5061402;27;45569;-61
2022/08/22 15:09:58;;;;;;;;;0.00;0.00;;;;;;;;5067048;27;46385;-61
2022/08/22 15:12:24;;;;;;;;;0.00;0.00;;;;;;;;5063326;28;45910;-63
2022/08/22 15:14:54;;;;;;;;;0.00;0.00;;;;;;;;5073925;27;45400;-62
2022/08/22 15:17:32;;;;;;;;;0.00;0.00;;;;;;;;5072168;27;45685;-61
2022/08/22 15:20:09;;;;;;;;;0.00;0.00;;;;;;;;5072280;28;45377;-63